默认 日期 大小 文件数 浏览量 最新下载 xml
menu磁力链接相关资源由用户搜索指令自动获取,结果来源于网络,本站不存储任何资料,亦不承担任何责任,请于24小时内删除,搜索到4343个磁力,显示前4000条数据,用时5ms。
    {"Clean_LeanDietCookbookOver.tgz": 8546624, "Torrent downloaded from demonoid.pw.txt": 46, "Torrent Downloaded From ExtraTorrent.com.txt": 367}
创建时间: 2022-01-30 08:12:15 大小:8.15 MB 文件数量:3 热度:6 最近下载:2025-01-21 13:01:39
    {"RARBG.txt": 30, "RARBG_DO_NOT_MIRROR.exe": 99, "Great.British.Menu.S18E01.Central.Starter.and.Fish.Courses.1080p.HDTV.H264-DARKFLiX.mkv": 2157724107, "great.british.menu.s18e01.central.starter.and.fish.courses.1080p.hdtv.h264-darkflix.nfo": 9211}
创建时间: 2022-02-04 10:25:08 大小:2.01 GB 文件数量:4 热度:6 最近下载:2025-04-04 07:37:02
    ... ": 364005}, "front.JPG": 57227, "Hot Menu '73 LP2.cue": 1716, "Hot ... Menu '73 LP2.flac": 1026302486, "Hot Menu '73 LP1.flac ... ": 1029179604, "Hot Menu '73 (LP1).cue ...
创建时间: 2022-02-07 14:34:06 大小:1.92 GB 文件数量:12 热度:6 最近下载:2025-03-01 09:52:04
    ... .is.txt": 56, "Great British Menu S17E04 North West Starters and ... Fish.jpg": 1042699, "Great British Menu S17E04 North West Starters and ... Fish.mp4": 2303771126, "Great British Menu S17E04 North West Starters and ...
创建时间: 2022-02-09 16:27:57 大小:2.15 GB 文件数量:7 热度:6 最近下载:2025-03-29 15:55:04
    {"SIS001影视联盟.gif": 36483, "[email protected]": 204, "第一会所 宣传图.jpg": 173821, "第一会所-综合社区.url": 216, "(無修正) アンバランス MENU.1.mp4": 382008610, "第一会所 宣传 [2012年5月23日更新].txt": 651}
创建时间: 2022-02-09 17:51:27 大小:364.51 MB 文件数量:6 热度:6 最近下载:2025-01-09 14:10:02
    ... .is.txt": 56, "Great British Menu S17E09 Wales Judging.mp4": 2304730485 ... , "Great British Menu S17E09 Wales Judging.srt": 154534}
创建时间: 2022-02-18 06:27:20 大小:2.15 GB 文件数量:6 热度:6 最近下载:2025-04-23 03:31:02
    ... .is.txt": 56, "Great British Menu S17E12 London and the South ... Judging.mp4": 2304326403, "Great British Menu S17E12 London and the South ...
创建时间: 2022-02-25 05:53:45 大小:2.15 GB 文件数量:6 热度:6 最近下载:2025-02-19 04:02:03
    {"sample.mkv": 5972122, "Off.the.Menu.2018.WEBRip.x264.AC3.BGAUDiO- ... SiSO.mkv": 935925838, "Off.the.Menu.2018.WEBRip.x264.AC3.BGAUDiO ...
创建时间: 2022-02-26 21:01:18 大小:898.7 MB 文件数量:5 热度:6 最近下载:2025-01-26 15:52:11
    ... in I'm On The Menu -={ SPARROW }=-.zip": 77772788 ...
创建时间: 2022-02-27 22:59:50 大小:74.48 MB 文件数量:5 热度:6 最近下载:2025-01-22 06:33:02
    {"RARBG.txt": 30, "RARBG_DO_NOT_MIRROR.exe": 99, "darkflix-1080p-20220317002238.nfo": 8903, "Great.British.Menu.S17E20.South.West.Mains.and.Desserts.Courses.REAL.1080p.HDTV.H264-DARKFLiX.mkv": 2105782377}
创建时间: 2022-03-17 12:07:18 大小:1.96 GB 文件数量:4 热度:6 最近下载:2025-05-07 16:45:01
    {"~Get Your Files Here !": {"1800464967.epub": 1080737, "Bonus Resources.txt": 386}, "Get Bonus Downloads Here.url": 178}
创建时间: 2022-03-22 22:23:33 大小:1.03 MB 文件数量:3 热度:6 最近下载:2025-03-12 01:55:02
    {"RARBG.txt": 30, "RARBG_DO_NOT_MIRROR.exe": 99, "darkflix-1080p-20220322212721.nfo": 8903, "Great.British.Menu.S17E22.Northern.Ireland.Starter.and.Fish.Courses.REAL.1080p.HDTV.H264-DARKFLiX.mkv": 2042992646}
创建时间: 2022-03-23 08:59:10 大小:1.9 GB 文件数量:4 热度:6 最近下载:2025-01-24 06:27:03
    ... 15697, "templateselect.jpg.mno": 15698}, "menu.JPG": 27054, ".DS_Store": 12292, " ... 90, "cssMenuDropDown": {"menus": {"main": {"menu.lyo": 339, "default.lyo": 317 ... ": 1320}, "cssMenuVerticalDropDown": {"menus": {"main": {"menu.lyo": 339, "default.lyo": 317 ...
创建时间: 2022-03-28 08:47:40 大小:6.66 MB 文件数量:154 热度:6 最近下载:2025-03-19 10:41:02
    ... .is.txt": 56, "Great British Menu S17E27 The Finals - Main.mp4 ... ": 2304378128, "Great British Menu S17E27 The Finals - Main.srt ...
创建时间: 2022-03-31 08:20:04 大小:2.15 GB 文件数量:6 热度:6 最近下载:2025-02-06 06:11:01
    {"E827D30-720p.mp4": 212768810, "最 新 位 址 獲 取.txt": 158, "_____padding_file_0_如果您看到此文件,请升级到BitComet(比特彗星)0.85或以上版本____": 92118}
创建时间: 2022-05-22 21:49:30 大小:203 MB 文件数量:3 热度:6 最近下载:2025-01-09 15:59:17
    {"Info.txt": 2248, "StartMenuX_Setup_5_30.exe": 6666140, "Torrent Downloaded From ExtraTorrent.com.txt": 339}
创建时间: 2022-05-28 09:38:47 大小:6.36 MB 文件数量:3 热度:6 最近下载:2025-05-14 14:14:02
    {"Importante Leeme!.vbs": 213, "Romance.on.the.Menu.2021.DVDrip-lat.avi": 504817511, "Descargar Películas, Series y Animes...url": 50}
创建时间: 2022-06-16 08:47:26 大小:481.43 MB 文件数量:3 热度:6 最近下载:2025-05-13 21:56:01
    {"01.jpg": 181165, "02.jpg": 174377, "03.jpg": 327999, "04.jpg": 399418, "05.jpg": 327208, "06.jpg": 374343, "07.jpg": 307869, "08.jpg": 411088, "09.jpg": 436429, "10.jpg": 351819, "11.jpg": 367878, "12.jpg": 350772, "13.jpg": 349377, "14.jpg": 394931, "15 ...
创建时间: 2022-06-20 08:55:56 大小:5.18 MB 文件数量:17 热度:6 最近下载:2025-05-16 15:43:04
    {"01.jpg": 295415, "02.jpg": 300641, "03.jpg": 269829, "04.jpg": 226126, "05.jpg": 222876, "06.jpg": 317108, "07.jpg": 272324, "08.jpg": 368357, "09.jpg": 361528, "10.jpg": 334781, "11.jpg": 343615, "12.jpg": 352924, "13.jpg": 320764, "14.jpg": 346503, "15 ...
创建时间: 2022-07-06 06:09:03 大小:11.69 MB 文件数量:36 热度:6 最近下载:2025-05-16 00:20:01
    {"Importante Leeme!.vbs": 213, "Romance.on.the.Menu.2021.720p-dual-lat.mkv": 1680644977, "Descargar Películas, Series y Animes...url": 50}
创建时间: 2022-07-07 20:50:47 大小:1.57 GB 文件数量:3 热度:6 最近下载:2025-05-11 00:48:01